sensor_id;sensor_type;location;lat;lon;timestamp;P1;durP1;ratioP1;P2;durP2;ratioP2
64419;SDS011;50745;48.170;14.516;2023-02-01T00:08:46;2.10;;;1.50;;
64419;SDS011;50745;48.170;14.516;2023-02-01T00:18:48;2.75;;;1.40;;
64419;SDS011;50745;48.170;14.516;2023-02-01T00:28:50;1.48;;;1.38;;
64419;SDS011;50745;48.170;14.516;2023-02-01T00:38:52;1.50;;;1.40;;
64419;SDS011;50745;48.170;14.516;2023-02-01T00:48:53;1.60;;;1.50;;
64419;SDS011;50745;48.170;14.516;2023-02-01T00:58:54;1.80;;;1.48;;
64419;SDS011;50745;48.170;14.516;2023-02-01T01:08:56;1.48;;;1.30;;
64419;SDS011;50745;48.170;14.516;2023-02-01T01:18:58;1.63;;;1.42;;
64419;SDS011;50745;48.170;14.516;2023-02-01T01:29:00;1.63;;;1.48;;
64419;SDS011;50745;48.170;14.516;2023-02-01T01:39:01;1.95;;;1.48;;
64419;SDS011;50745;48.170;14.516;2023-02-01T01:49:49;1.20;;;1.20;;
64419;SDS011;50745;48.170;14.516;2023-02-01T02:00:32;1.50;;;1.40;;
64419;SDS011;50745;48.170;14.516;2023-02-01T02:10:34;1.50;;;1.40;;
64419;SDS011;50745;48.170;14.516;2023-02-01T02:21:11;1.38;;;1.27;;
64419;SDS011;50745;48.170;14.516;2023-02-01T02:31:31;1.45;;;1.35;;
64419;SDS011;50745;48.170;14.516;2023-02-01T02:52:09;1.40;;;1.30;;
64419;SDS011;50745;48.170;14.516;2023-02-01T03:02:31;1.50;;;1.40;;
64419;SDS011;50745;48.170;14.516;2023-02-01T03:12:52;1.60;;;1.48;;
64419;SDS011;50745;48.170;14.516;2023-02-01T03:22:57;1.63;;;1.40;;
64419;SDS011;50745;48.170;14.516;2023-02-01T03:33:00;1.42;;;1.33;;
64419;SDS011;50745;48.170;14.516;2023-02-01T03:43:08;1.33;;;1.23;;
64419;SDS011;50745;48.170;14.516;2023-02-01T03:53:14;1.38;;;1.27;;
64419;SDS011;50745;48.170;14.516;2023-02-01T04:03:19;1.30;;;1.30;;
64419;SDS011;50745;48.170;14.516;2023-02-01T04:13:22;1.38;;;1.30;;
64419;SDS011;50745;48.170;14.516;2023-02-01T04:23:24;1.50;;;1.40;;
64419;SDS011;50745;48.170;14.516;2023-02-01T04:33:25;1.40;;;1.30;;
64419;SDS011;50745;48.170;14.516;2023-02-01T04:43:26;1.50;;;1.40;;
64419;SDS011;50745;48.170;14.516;2023-02-01T04:53:27;1.20;;;1.10;;
64419;SDS011;50745;48.170;14.516;2023-02-01T05:03:33;1.25;;;1.20;;
64419;SDS011;50745;48.170;14.516;2023-02-01T05:13:34;3.13;;;1.48;;
64419;SDS011;50745;48.170;14.516;2023-02-01T05:23:51;1.50;;;1.30;;
64419;SDS011;50745;48.170;14.516;2023-02-01T05:34:10;1.48;;;1.38;;
64419;SDS011;50745;48.170;14.516;2023-02-01T05:44:12;1.63;;;1.23;;
64419;SDS011;50745;48.170;14.516;2023-02-01T05:54:13;1.58;;;1.30;;
64419;SDS011;50745;48.170;14.516;2023-02-01T06:04:14;1.52;;;1.40;;
64419;SDS011;50745;48.170;14.516;2023-02-01T06:14:15;1.20;;;1.13;;
64419;SDS011;50745;48.170;14.516;2023-02-01T06:24:17;1.10;;;1.08;;
64419;SDS011;50745;48.170;14.516;2023-02-01T06:34:18;1.38;;;1.27;;
64419;SDS011;50745;48.170;14.516;2023-02-01T06:44:20;1.50;;;1.40;;
64419;SDS011;50745;48.170;14.516;2023-02-01T06:54:21;1.40;;;1.30;;
64419;SDS011;50745;48.170;14.516;2023-02-01T07:04:22;2.38;;;1.40;;
64419;SDS011;50745;48.170;14.516;2023-02-01T07:14:23;1.45;;;1.30;;
64419;SDS011;50745;48.170;14.516;2023-02-01T07:24:25;1.27;;;1.17;;
64419;SDS011;50745;48.170;14.516;2023-02-01T07:34:26;1.52;;;1.42;;
64419;SDS011;50745;48.170;14.516;2023-02-01T07:44:27;1.17;;;1.17;;
64419;SDS011;50745;48.170;14.516;2023-02-01T07:54:28;2.10;;;1.40;;
64419;SDS011;50745;48.170;14.516;2023-02-01T08:04:29;1.58;;;1.48;;
64419;SDS011;50745;48.170;14.516;2023-02-01T08:14:31;1.50;;;1.40;;
64419;SDS011;50745;48.170;14.516;2023-02-01T08:24:35;1.40;;;1.35;;
64419;SDS011;50745;48.170;14.516;2023-02-01T08:34:42;1.40;;;1.30;;
64419;SDS011;50745;48.170;14.516;2023-02-01T08:44:43;2.22;;;1.23;;
64419;SDS011;50745;48.170;14.516;2023-02-01T08:54:44;1.42;;;1.33;;
64419;SDS011;50745;48.170;14.516;2023-02-01T09:04:45;1.50;;;1.40;;
64419;SDS011;50745;48.170;14.516;2023-02-01T09:14:46;1.58;;;1.45;;
64419;SDS011;50745;48.170;14.516;2023-02-01T09:24:48;1.50;;;1.40;;
64419;SDS011;50745;48.170;14.516;2023-02-01T09:34:49;1.60;;;1.50;;
64419;SDS011;50745;48.170;14.516;2023-02-01T09:55:00;1.40;;;1.30;;
64419;SDS011;50745;48.170;14.516;2023-02-01T10:05:03;1.47;;;1.37;;
64419;SDS011;50745;48.170;14.516;2023-02-01T10:35:38;1.45;;;1.35;;
64419;SDS011;50745;48.170;14.516;2023-02-01T10:45:39;1.73;;;1.60;;
64419;SDS011;50745;48.170;14.516;2023-02-01T11:05:45;1.50;;;1.30;;
64419;SDS011;50745;48.170;14.516;2023-02-01T11:15:46;1.75;;;1.50;;
64419;SDS011;50745;48.170;14.516;2023-02-01T11:25:56;2.17;;;1.40;;
64419;SDS011;50745;48.170;14.516;2023-02-01T11:35:57;1.60;;;1.50;;
64419;SDS011;50745;48.170;14.516;2023-02-01T11:46:02;1.77;;;1.63;;
64419;SDS011;50745;48.170;14.516;2023-02-01T12:06:07;2.08;;;1.60;;
64419;SDS011;50745;48.170;14.516;2023-02-01T12:16:14;2.40;;;1.50;;
64419;SDS011;50745;48.170;14.516;2023-02-01T12:46:29;2.13;;;1.50;;
64419;SDS011;50745;48.170;14.516;2023-02-01T12:56:38;1.83;;;1.60;;
64419;SDS011;50745;48.170;14.516;2023-02-01T13:06:51;1.80;;;1.50;;
64419;SDS011;50745;48.170;14.516;2023-02-01T13:27:03;2.45;;;1.52;;
64419;SDS011;50745;48.170;14.516;2023-02-01T13:47:26;2.35;;;1.60;;
64419;SDS011;50745;48.170;14.516;2023-02-01T13:57:32;2.90;;;1.80;;
64419;SDS011;50745;48.170;14.516;2023-02-01T14:07:35;2.03;;;1.60;;
64419;SDS011;50745;48.170;14.516;2023-02-01T14:17:37;1.70;;;1.60;;
64419;SDS011;50745;48.170;14.516;2023-02-01T14:27:39;2.95;;;1.70;;
64419;SDS011;50745;48.170;14.516;2023-02-01T14:37:40;2.38;;;1.70;;
64419;SDS011;50745;48.170;14.516;2023-02-01T14:47:42;2.80;;;1.50;;
64419;SDS011;50745;48.170;14.516;2023-02-01T14:57:44;2.30;;;1.73;;
64419;SDS011;50745;48.170;14.516;2023-02-01T15:07:47;2.33;;;1.60;;
64419;SDS011;50745;48.170;14.516;2023-02-01T15:17:52;2.60;;;1.75;;
64419;SDS011;50745;48.170;14.516;2023-02-01T15:27:54;2.33;;;1.60;;
64419;SDS011;50745;48.170;14.516;2023-02-01T15:38:17;3.83;;;1.80;;
64419;SDS011;50745;48.170;14.516;2023-02-01T15:48:18;1.67;;;1.52;;
64419;SDS011;50745;48.170;14.516;2023-02-01T15:58:21;2.25;;;1.58;;
64419;SDS011;50745;48.170;14.516;2023-02-01T16:08:24;1.65;;;1.50;;
64419;SDS011;50745;48.170;14.516;2023-02-01T16:18:25;2.92;;;1.80;;
64419;SDS011;50745;48.170;14.516;2023-02-01T16:28:27;13.75;;;2.60;;
64419;SDS011;50745;48.170;14.516;2023-02-01T16:38:28;5.60;;;1.77;;
64419;SDS011;50745;48.170;14.516;2023-02-01T16:48:30;6.05;;;1.90;;
64419;SDS011;50745;48.170;14.516;2023-02-01T16:58:32;4.38;;;1.92;;
64419;SDS011;50745;48.170;14.516;2023-02-01T17:08:37;2.55;;;1.80;;
64419;SDS011;50745;48.170;14.516;2023-02-01T17:18:39;3.47;;;1.80;;
64419;SDS011;50745;48.170;14.516;2023-02-01T17:28:41;3.22;;;1.70;;
64419;SDS011;50745;48.170;14.516;2023-02-01T17:38:42;3.15;;;1.80;;
64419;SDS011;50745;48.170;14.516;2023-02-01T17:48:43;7.93;;;3.10;;
64419;SDS011;50745;48.170;14.516;2023-02-01T17:58:45;11.90;;;3.20;;
64419;SDS011;50745;48.170;14.516;2023-02-01T18:08:46;6.57;;;2.20;;
64419;SDS011;50745;48.170;14.516;2023-02-01T18:18:47;5.53;;;2.00;;
64419;SDS011;50745;48.170;14.516;2023-02-01T18:28:49;6.03;;;2.17;;
64419;SDS011;50745;48.170;14.516;2023-02-01T18:38:50;4.72;;;2.47;;
64419;SDS011;50745;48.170;14.516;2023-02-01T18:48:53;2.95;;;1.80;;
64419;SDS011;50745;48.170;14.516;2023-02-01T18:58:55;3.03;;;1.88;;
64419;SDS011;50745;48.170;14.516;2023-02-01T19:08:57;3.97;;;2.00;;
64419;SDS011;50745;48.170;14.516;2023-02-01T19:18:59;4.38;;;2.25;;
64419;SDS011;50745;48.170;14.516;2023-02-01T19:29:00;2.72;;;1.85;;
64419;SDS011;50745;48.170;14.516;2023-02-01T19:39:01;5.03;;;2.10;;
64419;SDS011;50745;48.170;14.516;2023-02-01T19:49:02;4.28;;;1.90;;
64419;SDS011;50745;48.170;14.516;2023-02-01T19:59:04;3.35;;;1.90;;
64419;SDS011;50745;48.170;14.516;2023-02-01T20:09:05;2.55;;;1.80;;
64419;SDS011;50745;48.170;14.516;2023-02-01T20:19:07;3.05;;;1.90;;
64419;SDS011;50745;48.170;14.516;2023-02-01T20:29:10;2.88;;;1.90;;
64419;SDS011;50745;48.170;14.516;2023-02-01T20:39:13;3.45;;;1.80;;
64419;SDS011;50745;48.170;14.516;2023-02-01T20:49:14;3.80;;;1.98;;
64419;SDS011;50745;48.170;14.516;2023-02-01T20:59:15;4.45;;;1.83;;
64419;SDS011;50745;48.170;14.516;2023-02-01T21:09:16;2.53;;;1.70;;
64419;SDS011;50745;48.170;14.516;2023-02-01T21:19:18;1.92;;;1.58;;
64419;SDS011;50745;48.170;14.516;2023-02-01T21:29:19;2.30;;;1.65;;
64419;SDS011;50745;48.170;14.516;2023-02-01T21:39:20;2.42;;;1.75;;
64419;SDS011;50745;48.170;14.516;2023-02-01T21:49:22;3.15;;;1.80;;
64419;SDS011;50745;48.170;14.516;2023-02-01T21:59:25;2.92;;;1.70;;
64419;SDS011;50745;48.170;14.516;2023-02-01T22:09:27;2.83;;;1.85;;
64419;SDS011;50745;48.170;14.516;2023-02-01T22:19:28;1.98;;;1.60;;
64419;SDS011;50745;48.170;14.516;2023-02-01T22:29:29;3.42;;;1.83;;
64419;SDS011;50745;48.170;14.516;2023-02-01T22:39:31;3.22;;;1.80;;
64419;SDS011;50745;48.170;14.516;2023-02-01T22:49:32;3.25;;;1.80;;
64419;SDS011;50745;48.170;14.516;2023-02-01T22:59:33;3.00;;;1.88;;
64419;SDS011;50745;48.170;14.516;2023-02-01T23:09:34;2.88;;;1.70;;
64419;SDS011;50745;48.170;14.516;2023-02-01T23:19:36;2.45;;;1.77;;
64419;SDS011;50745;48.170;14.516;2023-02-01T23:29:37;3.17;;;1.77;;
64419;SDS011;50745;48.170;14.516;2023-02-01T23:39:38;3.20;;;1.75;;
64419;SDS011;50745;48.170;14.516;2023-02-01T23:49:39;2.67;;;1.75;;
64419;SDS011;50745;48.170;14.516;2023-02-01T23:59:41;3.50;;;1.85;;
